createdAt,value
2023-04-09T00:00:14.562Z,100.00
2023-04-09T00:02:41.339Z,100.00
2023-04-09T00:05:08.509Z,100.00
2023-04-09T00:07:34.983Z,100.00
2023-04-09T00:10:01.487Z,100.00
2023-04-09T00:12:34.766Z,100.00
2023-04-09T00:15:01.231Z,100.00
2023-04-09T00:17:27.923Z,100.00
2023-04-09T00:19:56.464Z,100.00
2023-04-09T00:22:23.326Z,100.00
2023-04-09T00:24:49.807Z,100.00
2023-04-09T00:27:18.223Z,100.00
2023-04-09T00:29:44.773Z,100.00
2023-04-09T00:32:11.239Z,100.00
2023-04-09T00:34:44.245Z,100.00
2023-04-09T00:37:10.812Z,100.00
2023-04-09T00:39:37.298Z,100.00
2023-04-09T00:42:04.149Z,100.00
2023-04-09T00:44:30.797Z,100.00
2023-04-09T00:46:59.188Z,100.00
2023-04-09T00:49:26.755Z,100.00
2023-04-09T00:51:53.895Z,100.00
2023-04-09T00:54:20.597Z,100.00
2023-04-09T00:56:47.940Z,100.00
2023-04-09T00:59:18.327Z,100.00
2023-04-09T01:01:44.882Z,100.00
2023-04-09T01:04:11.676Z,100.00
2023-04-09T01:06:51.616Z,100.00
2023-04-09T01:09:30.608Z,100.00
2023-04-09T01:12:09.454Z,100.00
2023-04-09T01:14:56.757Z,100.00
2023-04-09T01:17:50.230Z,100.00
2023-04-09T01:20:49.950Z,100.00
2023-04-09T01:23:43.239Z,100.00
2023-04-09T01:26:37.424Z,100.00
2023-04-09T01:29:07.005Z,100.00
2023-04-09T01:31:39.228Z,100.00
2023-04-09T01:34:08.815Z,100.00
2023-04-09T01:36:36.781Z,100.00
2023-04-09T01:39:10.680Z,100.00
2023-04-09T01:41:38.083Z,100.00
2023-04-09T01:44:05.906Z,100.00
2023-04-09T01:46:34.106Z,100.00
2023-04-09T01:49:01.688Z,100.00
2023-04-09T01:51:31.718Z,100.00
2023-04-09T01:53:59.205Z,100.00
2023-04-09T01:56:25.872Z,100.00
2023-04-09T01:58:52.825Z,100.00
2023-04-09T02:01:36.415Z,100.00
2023-04-09T02:04:05.259Z,100.00
2023-04-09T02:06:42.245Z,100.00
2023-04-09T02:09:09.836Z,100.00
2023-04-09T02:11:42.295Z,100.00
2023-04-09T02:14:11.473Z,100.00
2023-04-09T02:16:39.393Z,100.00
2023-04-09T02:19:06.022Z,100.00
2023-04-09T02:21:34.513Z,100.00
2023-04-09T02:24:00.982Z,100.00
2023-04-09T02:26:27.719Z,100.00
2023-04-09T02:28:56.421Z,100.00
2023-04-09T02:31:25.318Z,100.00
2023-04-09T02:33:52.801Z,100.00
2023-04-09T02:36:19.417Z,100.00
2023-04-09T02:38:46.244Z,100.00
2023-04-09T02:41:12.767Z,100.00
2023-04-09T02:43:41.142Z,100.00
2023-04-09T02:46:07.871Z,100.00
2023-04-09T02:48:34.357Z,100.00
2023-04-09T02:51:01.583Z,100.00
2023-04-09T02:53:28.121Z,100.00
2023-04-09T02:55:54.642Z,100.00
2023-04-09T02:58:21.217Z,100.00
2023-04-09T03:00:50.075Z,100.00
2023-04-09T03:03:16.794Z,100.00
2023-04-09T03:05:43.684Z,100.00
2023-04-09T03:08:10.141Z,100.00
2023-04-09T03:10:36.635Z,100.00
2023-04-09T03:13:03.298Z,100.00
2023-04-09T03:15:29.764Z,100.00
2023-04-09T03:17:58.243Z,100.00
2023-04-09T03:20:26.603Z,100.00
2023-04-09T03:22:53.120Z,100.00
2023-04-09T03:25:20.843Z,100.00
2023-04-09T03:27:56.043Z,100.00
2023-04-09T03:30:22.586Z,100.00
2023-04-09T03:32:49.087Z,100.00
2023-04-09T03:35:17.458Z,100.00
2023-04-09T03:37:43.896Z,100.00
2023-04-09T03:40:11.272Z,100.00
2023-04-09T03:42:37.900Z,100.00
2023-04-09T03:45:05.437Z,100.00
2023-04-09T03:47:33.139Z,100.00
2023-04-09T03:50:06.193Z,100.00
2023-04-09T03:52:32.679Z,100.00
2023-04-09T03:54:59.114Z,100.00
2023-04-09T03:57:25.755Z,100.00
2023-04-09T03:59:52.540Z,100.00
2023-04-09T04:02:19.218Z,100.00
2023-04-09T04:04:47.629Z,100.00
2023-04-09T04:07:14.154Z,100.00
2023-04-09T04:09:40.616Z,100.00
2023-04-09T04:12:09.173Z,100.00
2023-04-09T04:14:35.784Z,100.00
2023-04-09T04:17:02.302Z,100.00
2023-04-09T04:19:30.673Z,100.00
2023-04-09T04:21:57.452Z,100.00
2023-04-09T04:24:24.348Z,100.00
2023-04-09T04:26:51.096Z,100.00
2023-04-09T04:29:18.035Z,100.00
2023-04-09T04:31:44.784Z,100.00
2023-04-09T04:34:13.479Z,100.00
2023-04-09T04:36:39.948Z,100.00
2023-04-09T04:39:06.427Z,100.00
2023-04-09T04:41:33.167Z,100.00
2023-04-09T04:43:59.978Z,100.00
2023-04-09T04:46:26.465Z,100.00
2023-04-09T04:48:53.445Z,100.00
2023-04-09T04:51:20.107Z,100.00
2023-04-09T04:53:48.904Z,100.00
2023-04-09T04:56:16.170Z,100.00
2023-04-09T04:58:43.609Z,100.00
2023-04-09T05:01:10.126Z,100.00
2023-04-09T05:03:43.412Z,100.00
2023-04-09T05:06:09.893Z,100.00
2023-04-09T05:08:36.375Z,100.00
2023-04-09T05:11:03.150Z,100.00
2023-04-09T05:13:29.706Z,100.00
2023-04-09T05:15:58.397Z,100.00
2023-04-09T05:18:24.975Z,100.00
2023-04-09T05:20:51.531Z,100.00
2023-04-09T05:23:18.083Z,100.00
2023-04-09T05:25:45.064Z,100.00
2023-04-09T05:28:11.643Z,100.00
2023-04-09T05:30:38.258Z,100.00
2023-04-09T05:33:04.890Z,100.00
2023-04-09T05:35:31.385Z,100.00
2023-04-09T05:38:02.502Z,100.00
2023-04-09T05:40:29.347Z,100.00
2023-04-09T05:42:55.841Z,100.00
2023-04-09T05:45:22.330Z,100.00
2023-04-09T05:47:49.050Z,100.00
2023-04-09T05:50:15.945Z,100.00
2023-04-09T05:52:42.431Z,100.00
2023-04-09T05:55:11.898Z,100.00
2023-04-09T05:57:38.701Z,100.00
2023-04-09T06:00:06.087Z,99.56
2023-04-09T06:02:34.386Z,97.13
2023-04-09T06:05:00.948Z,98.21
2023-04-09T06:07:27.477Z,92.24
2023-04-09T06:09:58.291Z,94.62
2023-04-09T06:12:24.788Z,96.30
2023-04-09T06:14:51.302Z,99.23
2023-04-09T06:17:17.795Z,100.00
2023-04-09T06:19:44.258Z,100.00
2023-04-09T06:22:14.992Z,100.00
2023-04-09T06:24:50.077Z,100.00
2023-04-09T06:27:22.102Z,99.92
2023-04-09T06:29:48.763Z,100.00
2023-04-09T06:32:15.399Z,100.00
2023-04-09T06:34:42.210Z,100.00
2023-04-09T06:37:08.800Z,100.00
2023-04-09T06:39:38.719Z,100.00
2023-04-09T06:42:06.908Z,100.00
2023-04-09T06:44:34.668Z,100.00
2023-04-09T06:47:03.055Z,100.00
2023-04-09T06:49:29.527Z,100.00
2023-04-09T06:51:56.235Z,100.00
2023-04-09T06:54:27.271Z,100.00
2023-04-09T06:56:53.742Z,100.00
2023-04-09T06:59:20.372Z,100.00
2023-04-09T07:01:50.729Z,100.00
2023-04-09T07:04:18.680Z,100.00
2023-04-09T07:06:45.483Z,96.94
2023-04-09T07:12:11.388Z,93.55
2023-04-09T07:14:39.566Z,89.90
2023-04-09T07:17:06.232Z,89.58
2023-04-09T07:19:34.415Z,89.88
2023-04-09T07:22:00.909Z,88.21
2023-04-09T07:24:27.414Z,89.02
2023-04-09T07:26:54.146Z,87.39
2023-04-09T07:29:22.397Z,84.92
2023-04-09T07:31:48.941Z,83.15
2023-04-09T07:34:17.303Z,83.57
2023-04-09T07:36:43.985Z,83.05
2023-04-09T07:39:10.609Z,80.21
2023-04-09T07:41:49.031Z,78.98
2023-04-09T07:44:18.659Z,80.92
2023-04-09T07:46:45.289Z,82.69
2023-04-09T07:49:12.049Z,84.26
2023-04-09T07:51:38.547Z,82.73
2023-04-09T07:54:05.840Z,82.91
2023-04-09T07:56:32.455Z,80.10
2023-04-09T07:58:59.195Z,80.77
2023-04-09T08:01:26.579Z,79.79
2023-04-09T08:03:53.285Z,80.26
2023-04-09T08:06:20.298Z,79.98
2023-04-09T08:08:46.973Z,74.95
2023-04-09T08:11:13.853Z,76.30
2023-04-09T08:13:40.623Z,78.06
2023-04-09T08:16:07.223Z,70.92
2023-04-09T08:18:41.948Z,69.80
2023-04-09T08:21:12.325Z,71.09
2023-04-09T08:23:39.110Z,67.43
2023-04-09T08:26:08.283Z,72.23
2023-04-09T08:28:34.775Z,65.47
2023-04-09T08:31:01.268Z,66.49
2023-04-09T08:33:29.577Z,65.31
2023-04-09T08:35:56.519Z,65.59
2023-04-09T08:38:22.992Z,64.60
2023-04-09T08:40:49.706Z,63.19
2023-04-09T08:43:16.610Z,64.83
2023-04-09T08:45:43.110Z,63.55
2023-04-09T08:48:15.232Z,65.28
2023-04-09T08:50:41.787Z,66.23
2023-04-09T08:53:09.645Z,67.32
2023-04-09T08:55:37.450Z,66.58
2023-04-09T08:58:13.589Z,66.04
2023-04-09T09:00:48.277Z,64.14
2023-04-09T09:03:14.953Z,64.37
2023-04-09T09:05:46.141Z,62.92
2023-04-09T09:08:27.755Z,64.36
2023-04-09T09:10:54.298Z,63.22
2023-04-09T09:13:26.393Z,65.46
2023-04-09T09:15:58.536Z,60.35
2023-04-09T09:18:43.322Z,60.22
2023-04-09T09:21:19.583Z,60.53
2023-04-09T09:23:48.428Z,60.28
2023-04-09T09:26:23.313Z,61.72
2023-04-09T09:28:54.146Z,59.49
2023-04-09T09:31:22.665Z,57.17
2023-04-09T09:33:52.455Z,60.32
2023-04-09T09:36:39.043Z,58.50
2023-04-09T09:39:10.250Z,56.23
2023-04-09T09:41:44.817Z,56.95
2023-04-09T09:44:15.320Z,59.13
2023-04-09T09:46:42.717Z,55.61
2023-04-09T09:49:09.881Z,53.21
2023-04-09T09:51:41.342Z,56.95
2023-04-09T09:54:13.083Z,54.65
2023-04-09T09:56:44.704Z,55.89
2023-04-09T09:59:20.000Z,55.16
2023-04-09T10:01:48.704Z,54.45
2023-04-09T10:04:20.127Z,53.48
2023-04-09T10:06:53.442Z,52.00
2023-04-09T10:09:23.544Z,54.45
2023-04-09T10:11:50.201Z,54.73
2023-04-09T10:14:18.601Z,54.40
2023-04-09T10:16:46.634Z,53.93
2023-04-09T10:19:15.301Z,54.12
2023-04-09T10:22:07.902Z,51.50
2023-04-09T10:24:35.697Z,55.67
2023-04-09T10:27:15.912Z,51.74
2023-04-09T10:32:37.141Z,52.13
2023-04-09T10:35:04.436Z,51.74
2023-04-09T10:37:42.420Z,50.28
2023-04-09T10:40:20.563Z,49.74
2023-04-09T10:42:53.399Z,48.64
2023-04-09T10:45:22.473Z,48.61
2023-04-09T10:47:53.772Z,50.46
2023-04-09T10:50:33.523Z,50.79
2023-04-09T10:53:00.952Z,46.69
2023-04-09T10:55:33.082Z,48.27
2023-04-09T10:58:03.240Z,47.83
2023-04-09T11:00:30.116Z,46.45
2023-04-09T11:03:02.940Z,46.30
2023-04-09T11:05:40.362Z,46.83
2023-04-09T11:08:12.218Z,48.87
2023-04-09T11:10:48.216Z,47.64
2023-04-09T11:13:17.904Z,47.39
2023-04-09T11:15:45.527Z,47.33
2023-04-09T11:18:25.049Z,47.69
2023-04-09T11:20:59.568Z,47.50
2023-04-09T11:23:27.106Z,49.46
2023-04-09T11:25:54.597Z,49.29
2023-04-09T11:28:21.228Z,50.18
2023-04-09T11:30:49.702Z,49.77
2023-04-09T11:33:18.256Z,49.36
2023-04-09T11:35:46.485Z,49.05
2023-04-09T11:38:14.928Z,46.21
2023-04-09T11:40:49.518Z,48.01
2023-04-09T11:43:23.901Z,46.98
2023-04-09T11:45:50.493Z,47.87
2023-04-09T11:48:21.885Z,47.43
2023-04-09T11:50:52.638Z,45.09
2023-04-09T11:53:23.134Z,45.51
2023-04-09T11:55:51.708Z,47.35
2023-04-09T11:58:18.843Z,46.46
2023-04-09T12:00:45.866Z,46.33
2023-04-09T12:03:12.664Z,44.23
2023-04-09T12:05:42.865Z,48.55
2023-04-09T12:08:12.139Z,44.63
2023-04-09T12:10:38.888Z,44.83
2023-04-09T12:13:13.930Z,47.63
2023-04-09T12:15:45.531Z,45.54
2023-04-09T12:18:13.406Z,46.26
2023-04-09T12:20:45.747Z,44.35
2023-04-09T12:23:13.325Z,46.44
2023-04-09T12:25:42.962Z,43.99
2023-04-09T12:28:13.851Z,45.76
2023-04-09T12:30:40.897Z,47.65
2023-04-09T12:33:10.291Z,44.91
2023-04-09T12:35:38.500Z,46.79
2023-04-09T12:38:05.294Z,46.55
2023-04-09T12:40:31.936Z,46.31
2023-04-09T12:43:03.157Z,45.94
2023-04-09T12:45:30.922Z,47.23
2023-04-09T12:47:58.151Z,46.67
2023-04-09T12:50:27.445Z,44.27
2023-04-09T12:52:53.931Z,47.01
2023-04-09T12:55:20.625Z,45.32
2023-04-09T12:57:50.567Z,46.77
2023-04-09T13:00:17.254Z,45.02
2023-04-09T13:02:43.964Z,45.89
2023-04-09T13:05:10.820Z,44.92
2023-04-09T13:07:40.892Z,44.71
2023-04-09T13:10:09.162Z,45.98
2023-04-09T13:12:37.424Z,46.61
2023-04-09T13:15:04.307Z,45.22
2023-04-09T13:17:30.896Z,45.10
2023-04-09T13:20:02.023Z,43.87
2023-04-09T13:22:28.558Z,44.75
2023-04-09T13:24:55.083Z,45.04
2023-04-09T13:27:22.316Z,45.39
2023-04-09T13:29:48.801Z,44.09
2023-04-09T13:32:18.333Z,44.55
2023-04-09T13:34:46.639Z,46.11
2023-04-09T13:37:13.155Z,44.57
2023-04-09T13:39:39.731Z,45.24
2023-04-09T13:42:14.135Z,45.69
2023-04-09T13:44:45.196Z,45.62
2023-04-09T13:47:19.121Z,45.68
2023-04-09T13:49:45.888Z,46.20
2023-04-09T13:52:12.854Z,46.35
2023-04-09T13:54:39.406Z,46.44
2023-04-09T13:57:05.965Z,44.63
2023-04-09T13:59:32.714Z,45.90
2023-04-09T14:01:59.696Z,45.38
2023-04-09T14:04:26.320Z,47.55
2023-04-09T14:06:52.932Z,44.39
2023-04-09T14:09:21.208Z,45.68
2023-04-09T14:11:49.785Z,46.01
2023-04-09T14:14:16.683Z,44.58
2023-04-09T14:16:43.322Z,44.90
2023-04-09T14:19:10.499Z,45.60
2023-04-09T14:21:37.197Z,46.52
2023-04-09T14:24:04.017Z,46.71
2023-04-09T14:26:30.614Z,46.52
2023-04-09T14:28:57.399Z,46.41
2023-04-09T14:31:31.799Z,45.94
2023-04-09T14:33:58.325Z,45.94
2023-04-09T14:36:24.817Z,46.49
2023-04-09T14:38:51.738Z,45.26
2023-04-09T14:41:18.823Z,45.80
2023-04-09T14:43:45.590Z,45.40
2023-04-09T14:46:12.302Z,46.54
2023-04-09T14:48:42.228Z,45.88
2023-04-09T14:51:11.902Z,46.38
2023-04-09T14:53:40.241Z,46.10
2023-04-09T14:56:07.320Z,46.25
2023-04-09T14:58:33.860Z,47.27
2023-04-09T15:01:02.270Z,45.63
2023-04-09T15:03:28.985Z,47.59
2023-04-09T15:05:55.895Z,46.15
2023-04-09T15:08:26.715Z,46.19
2023-04-09T15:10:53.226Z,46.15
2023-04-09T15:13:19.748Z,46.36
2023-04-09T15:15:48.243Z,46.65
2023-04-09T15:18:14.799Z,46.17
2023-04-09T15:20:43.472Z,47.45
2023-04-09T15:23:12.591Z,47.61
2023-04-09T15:25:39.622Z,47.11
2023-04-09T15:28:06.758Z,44.84
2023-04-09T15:30:35.541Z,47.01
2023-04-09T15:33:08.103Z,46.83
2023-04-09T15:35:35.256Z,46.33
2023-04-09T15:38:03.746Z,45.24
2023-04-09T15:40:31.168Z,45.98
2023-04-09T15:42:57.765Z,46.74
2023-04-09T15:45:24.493Z,45.17
2023-04-09T15:47:51.015Z,46.62
2023-04-09T15:50:17.561Z,45.64
2023-04-09T15:52:45.878Z,46.35
2023-04-09T15:55:12.469Z,45.67
2023-04-09T15:57:38.964Z,44.95
2023-04-09T16:00:08.340Z,45.68
2023-04-09T16:05:27.425Z,45.13
2023-04-09T16:07:58.284Z,44.84
2023-04-09T16:10:26.395Z,44.88
2023-04-09T16:12:54.723Z,45.98
2023-04-09T16:15:21.754Z,45.32
2023-04-09T16:17:48.281Z,45.82
2023-04-09T16:20:23.436Z,46.01
2023-04-09T16:22:49.898Z,45.66
2023-04-09T16:25:16.433Z,45.03
2023-04-09T16:27:42.970Z,45.01
2023-04-09T16:30:09.910Z,45.96
2023-04-09T16:32:36.409Z,45.03
2023-04-09T16:35:04.843Z,46.49
2023-04-09T16:37:31.384Z,46.46
2023-04-09T16:39:58.988Z,45.67
2023-04-09T16:42:34.453Z,46.49
2023-04-09T16:45:04.604Z,47.25
2023-04-09T16:47:33.393Z,46.48
2023-04-09T16:50:00.428Z,47.06
2023-04-09T16:52:31.167Z,47.25
2023-04-09T16:54:57.649Z,47.99
2023-04-09T16:57:30.551Z,46.99
2023-04-09T16:59:57.964Z,47.16
2023-04-09T17:02:24.858Z,47.20
2023-04-09T17:04:53.459Z,47.66
2023-04-09T17:07:20.221Z,48.23
2023-04-09T17:09:46.730Z,47.95
2023-04-09T17:12:13.701Z,48.31
2023-04-09T17:14:41.939Z,49.03
2023-04-09T17:17:08.996Z,48.08
2023-04-09T17:19:42.973Z,48.47
2023-04-09T17:22:10.731Z,48.03
2023-04-09T17:24:37.287Z,48.82
2023-04-09T17:27:07.547Z,48.62
2023-04-09T17:29:34.461Z,50.00
2023-04-09T17:32:04.514Z,48.67
2023-04-09T17:34:31.554Z,48.53
2023-04-09T17:36:59.965Z,49.25
2023-04-09T17:39:29.050Z,49.58
2023-04-09T17:41:58.274Z,49.37
2023-04-09T17:44:27.760Z,50.30
2023-04-09T17:46:54.395Z,50.76
2023-04-09T17:49:22.555Z,50.72
2023-04-09T17:51:49.114Z,50.86
2023-04-09T17:54:15.657Z,50.89
2023-04-09T17:56:42.232Z,51.29
2023-04-09T17:59:08.722Z,51.17
2023-04-09T18:01:35.342Z,50.74
2023-04-09T18:04:10.036Z,50.96
2023-04-09T18:06:40.244Z,51.60
2023-04-09T18:09:07.640Z,51.73
2023-04-09T18:11:36.286Z,52.42
2023-04-09T18:14:07.815Z,53.12
2023-04-09T18:16:40.097Z,53.25
2023-04-09T18:19:07.644Z,53.56
2023-04-09T18:21:37.781Z,53.30
2023-04-09T18:24:06.473Z,53.63
2023-04-09T18:26:33.921Z,53.86
2023-04-09T18:29:01.424Z,53.71
2023-04-09T18:31:28.355Z,54.01
2023-04-09T18:33:57.289Z,54.37
2023-04-09T18:36:24.196Z,54.14
2023-04-09T18:38:52.867Z,54.18
2023-04-09T18:41:26.988Z,54.59
2023-04-09T18:43:54.026Z,54.92
2023-04-09T18:46:20.758Z,55.09
2023-04-09T18:48:47.306Z,55.74
2023-04-09T18:51:14.778Z,55.65
2023-04-09T18:53:42.163Z,55.85
2023-04-09T18:56:08.877Z,56.53
2023-04-09T18:58:40.709Z,56.66
2023-04-09T19:01:11.825Z,56.96
2023-04-09T19:03:39.719Z,57.11
2023-04-09T19:06:24.745Z,57.25
2023-04-09T19:08:57.198Z,57.50
2023-04-09T19:11:33.447Z,57.74
2023-04-09T19:14:00.012Z,58.08
2023-04-09T19:16:26.515Z,58.45
2023-04-09T19:18:53.379Z,59.17
2023-04-09T19:21:19.999Z,59.22
2023-04-09T19:23:46.989Z,59.71
2023-04-09T19:26:20.287Z,60.14
2023-04-09T19:28:46.916Z,61.04
2023-04-09T19:31:14.684Z,61.19
2023-04-09T19:33:41.313Z,62.27
2023-04-09T19:36:08.310Z,62.14
2023-04-09T19:38:34.972Z,62.88
2023-04-09T19:41:07.730Z,63.63
2023-04-09T19:43:34.420Z,63.93
2023-04-09T19:46:05.905Z,65.69
2023-04-09T19:48:32.531Z,66.06
2023-04-09T19:50:59.190Z,66.13
2023-04-09T19:53:26.158Z,67.02
2023-04-09T19:55:54.402Z,67.22
2023-04-09T19:58:20.994Z,67.59
2023-04-09T20:00:47.552Z,67.79
2023-04-09T20:03:14.398Z,68.35
2023-04-09T20:05:42.732Z,68.02
2023-04-09T20:08:13.515Z,68.79
2023-04-09T20:10:44.874Z,68.56
2023-04-09T20:13:11.579Z,69.08
2023-04-09T20:15:38.142Z,70.27
2023-04-09T20:18:09.114Z,70.59
2023-04-09T20:20:35.761Z,71.05
2023-04-09T20:23:03.365Z,71.73
2023-04-09T20:25:36.477Z,72.18
2023-04-09T20:28:03.767Z,72.45
2023-04-09T20:30:32.601Z,72.37
2023-04-09T20:32:59.307Z,73.40
2023-04-09T20:35:26.036Z,73.60
2023-04-09T20:37:54.346Z,73.57
2023-04-09T20:40:21.816Z,73.92
2023-04-09T20:42:48.745Z,74.14
2023-04-09T20:45:15.848Z,74.35
2023-04-09T20:47:44.133Z,74.90
2023-04-09T20:50:11.098Z,74.83
2023-04-09T20:52:38.386Z,75.17
2023-04-09T20:55:07.608Z,74.66
2023-04-09T20:57:34.398Z,74.29
2023-04-09T21:00:00.963Z,75.31
2023-04-09T21:02:29.471Z,74.67
2023-04-09T21:04:59.929Z,74.79
2023-04-09T21:07:28.106Z,75.54
2023-04-09T21:10:02.404Z,75.51
2023-04-09T21:12:34.468Z,76.08
2023-04-09T21:15:01.538Z,76.06
2023-04-09T21:17:34.660Z,76.49
2023-04-09T21:20:01.187Z,76.98
2023-04-09T21:22:27.734Z,76.88
2023-04-09T21:24:56.105Z,77.42
2023-04-09T21:27:23.063Z,77.62
2023-04-09T21:29:49.906Z,78.33
2023-04-09T21:32:17.712Z,77.78
2023-04-09T21:34:46.041Z,78.02
2023-04-09T21:37:12.563Z,78.31
2023-04-09T21:39:39.190Z,78.45
2023-04-09T21:42:08.816Z,78.42
2023-04-09T21:44:35.616Z,78.76
2023-04-09T21:47:11.823Z,78.68
2023-04-09T21:49:40.467Z,78.58
2023-04-09T21:52:14.533Z,78.42
2023-04-09T21:54:42.546Z,77.58
2023-04-09T21:57:17.186Z,77.40
2023-04-09T21:59:43.792Z,77.55
2023-04-09T22:02:10.787Z,76.86
2023-04-09T22:04:39.362Z,77.45
2023-04-09T22:07:06.423Z,77.07
2023-04-09T22:09:32.929Z,76.66
2023-04-09T22:11:59.835Z,77.41
2023-04-09T22:14:29.457Z,77.17
2023-04-09T22:17:03.199Z,77.18
2023-04-09T22:19:32.113Z,76.30
2023-04-09T22:21:58.742Z,76.95
2023-04-09T22:24:30.279Z,75.97
2023-04-09T22:26:58.999Z,76.44
2023-04-09T22:29:28.540Z,75.75
2023-04-09T22:31:55.940Z,76.17
2023-04-09T22:34:22.615Z,77.52
2023-04-09T22:36:49.676Z,76.55
2023-04-09T22:39:16.627Z,76.71
2023-04-09T22:41:46.531Z,77.30
2023-04-09T22:44:13.064Z,77.65
2023-04-09T22:46:39.677Z,77.71
2023-04-09T22:49:06.589Z,77.44
2023-04-09T22:51:36.244Z,76.03
2023-04-09T22:54:07.649Z,75.86
2023-04-09T22:56:34.587Z,75.54
2023-04-09T22:59:01.091Z,75.65
2023-04-09T23:01:29.445Z,75.32
2023-04-09T23:03:56.320Z,74.63
2023-04-09T23:06:25.479Z,74.22
2023-04-09T23:08:52.267Z,73.75
2023-04-09T23:11:19.000Z,73.80
2023-04-09T23:13:45.786Z,73.05
2023-04-09T23:16:21.528Z,72.98
2023-04-09T23:18:49.933Z,72.54
2023-04-09T23:21:16.733Z,72.21
2023-04-09T23:23:50.491Z,72.15
2023-04-09T23:26:18.838Z,71.48
2023-04-09T23:28:45.331Z,71.60
2023-04-09T23:31:18.603Z,71.57
2023-04-09T23:33:45.136Z,72.53
2023-04-09T23:36:11.699Z,72.79
2023-04-09T23:38:40.630Z,73.16
2023-04-09T23:41:09.103Z,73.28
2023-04-09T23:43:35.660Z,73.63
2023-04-09T23:46:02.354Z,73.46
2023-04-09T23:48:28.833Z,73.61
2023-04-09T23:50:55.352Z,73.82
2023-04-09T23:53:26.472Z,73.93
2023-04-09T23:55:53.103Z,73.90
2023-04-09T23:58:21.259Z,74.32
